VOZ644 YMHB-YSCB
Flight info
| Callsign | VOZ644 |
|---|---|
| Flight time | 1h 10m |
| Altitude | 32000 |
| Route | LATUM H111 LT W218 VIMAP/N0420F330 Y327 MAKRL/N0426F340 DCT POLLI |
| Aircraft | B38M/M-SDE1FGHILORVWXY/HB1 |
Departure
| Time | 2026-05-05 06:31 |
|---|---|
| Airport | Hobart International Airport (YMHB) |
Arrival
| Time | 2026-05-05 07:42 |
|---|---|
| Airport | Canberra Airport (YSCB) |
| Time | Latitude | Longitude | Altitude | Speed | Heading |
|---|---|---|---|---|---|
| 2026-05-05 06:07 | -42.83683 | 147.50626 | 22 ft | 0 kts | 225° |
| 2026-05-05 06:21 | -42.83681 | 147.50628 | 23 ft | 2 kts | 225° |
| 2026-05-05 06:21 | -42.83670 | 147.50644 | 23 ft | 2 kts | 226° |
| 2026-05-05 06:21 | -42.83658 | 147.50660 | 23 ft | 2 kts | 226° |
| 2026-05-05 06:21 | -42.83646 | 147.50674 | 26 ft | 2 kts | 175° |
| 2026-05-05 06:22 | -42.83635 | 147.50668 | 23 ft | 1 kts | 139° |
| 2026-05-05 06:22 | -42.83634 | 147.50667 | 23 ft | 0 kts | 138° |
| 2026-05-05 06:25 | -42.83639 | 147.50673 | 21 ft | 4 kts | 138° |
| 2026-05-05 06:25 | -42.83692 | 147.50745 | 23 ft | 16 kts | 135° |
| 2026-05-05 06:25 | -42.83787 | 147.50829 | 23 ft | 18 kts | 153° |
| 2026-05-05 06:26 | -42.83876 | 147.50924 | 25 ft | 17 kts | 135° |
| 2026-05-05 06:26 | -42.83945 | 147.51032 | 24 ft | 14 kts | 106° |
| 2026-05-05 06:26 | -42.83897 | 147.51147 | 24 ft | 15 kts | 44° |
| 2026-05-05 06:26 | -42.83821 | 147.51250 | 23 ft | 12 kts | 44° |
| 2026-05-05 06:27 | -42.83815 | 147.51259 | 27 ft | 2 kts | 45° |
| 2026-05-05 06:27 | -42.83803 | 147.51432 | 19 ft | 17 kts | 133° |
| 2026-05-05 06:27 | -42.83897 | 147.51561 | 20 ft | 20 kts | 135° |
| 2026-05-05 06:28 | -42.84004 | 147.51704 | 18 ft | 22 kts | 136° |
| 2026-05-05 06:28 | -42.84107 | 147.51842 | 23 ft | 20 kts | 135° |
| 2026-05-05 06:28 | -42.84212 | 147.51986 | 23 ft | 23 kts | 135° |
| 2026-05-05 06:28 | -42.84316 | 147.52127 | 25 ft | 22 kts | 135° |
| 2026-05-05 06:29 | -42.84416 | 147.52262 | 23 ft | 19 kts | 136° |
| 2026-05-05 06:29 | -42.84520 | 147.52321 | 20 ft | 17 kts | 161° |
| 2026-05-05 06:29 | -42.84577 | 147.52406 | 17 ft | 11 kts | 66° |
| 2026-05-05 06:29 | -42.84530 | 147.52428 | 18 ft | 5 kts | 310° |
| 2026-05-05 06:30 | -42.84514 | 147.52394 | 20 ft | 0 kts | 314° |
| 2026-05-05 06:30 | -42.84512 | 147.52392 | 20 ft | 2 kts | 314° |
| 2026-05-05 06:30 | -42.84407 | 147.52247 | 22 ft | 58 kts | 314° |
| 2026-05-05 06:31 | -42.83923 | 147.51594 | 20 ft | 134 kts | 315° |
| 2026-05-05 06:31 | -42.83185 | 147.50618 | 469 ft | 157 kts | 313° |
| 2026-05-05 06:31 | -42.82405 | 147.49544 | 1269 ft | 165 kts | 310° |
| 2026-05-05 06:31 | -42.81583 | 147.48370 | 2005 ft | 185 kts | 310° |
| 2026-05-05 06:32 | -42.80658 | 147.47019 | 2688 ft | 207 kts | 311° |
| 2026-05-05 06:32 | -42.79606 | 147.45570 | 3496 ft | 225 kts | 312° |
| 2026-05-05 06:32 | -42.78433 | 147.44016 | 4290 ft | 244 kts | 311° |
| 2026-05-05 06:32 | -42.77207 | 147.42375 | 5324 ft | 248 kts | 311° |
| 2026-05-05 06:33 | -42.75966 | 147.40699 | 6383 ft | 255 kts | 310° |
| 2026-05-05 06:33 | -42.74691 | 147.38968 | 7333 ft | 262 kts | 310° |
| 2026-05-05 06:33 | -42.73409 | 147.37222 | 8334 ft | 267 kts | 311° |
| 2026-05-05 06:33 | -42.72086 | 147.35413 | 9329 ft | 272 kts | 311° |
| 2026-05-05 06:34 | -42.70737 | 147.33571 | 10269 ft | 278 kts | 311° |
| 2026-05-05 06:34 | -42.69328 | 147.31646 | 10906 ft | 295 kts | 311° |
| 2026-05-05 06:34 | -42.67847 | 147.29626 | 11593 ft | 307 kts | 311° |
| 2026-05-05 06:34 | -42.66327 | 147.27552 | 12542 ft | 310 kts | 311° |
| 2026-05-05 06:35 | -42.64795 | 147.25465 | 13498 ft | 314 kts | 311° |
| 2026-05-05 06:35 | -42.63243 | 147.23350 | 14367 ft | 318 kts | 311° |
| 2026-05-05 06:35 | -42.61676 | 147.21219 | 15231 ft | 321 kts | 311° |
| 2026-05-05 06:35 | -42.59863 | 147.19393 | 16092 ft | 331 kts | 330° |
| 2026-05-05 06:36 | -42.57643 | 147.18580 | 16960 ft | 344 kts | 351° |
| 2026-05-05 06:36 | -42.55224 | 147.18923 | 17810 ft | 359 kts | 11° |
| 2026-05-05 06:36 | -42.52947 | 147.20435 | 18575 ft | 373 kts | 30° |
| 2026-05-05 06:36 | -42.50810 | 147.22463 | 19224 ft | 377 kts | 29° |
| 2026-05-05 06:37 | -42.48625 | 147.24477 | 19856 ft | 382 kts | 30° |
| 2026-05-05 06:37 | -42.46428 | 147.26555 | 20502 ft | 387 kts | 30° |
| 2026-05-05 06:37 | -42.44203 | 147.28652 | 21115 ft | 392 kts | 30° |
| 2026-05-05 06:37 | -42.41951 | 147.30772 | 21686 ft | 397 kts | 30° |
| 2026-05-05 06:38 | -42.39661 | 147.32924 | 22284 ft | 402 kts | 30° |
| 2026-05-05 06:38 | -42.37377 | 147.35069 | 22886 ft | 406 kts | 30° |
| 2026-05-05 06:38 | -42.35024 | 147.37224 | 23457 ft | 408 kts | 25° |
| 2026-05-05 06:38 | -42.32428 | 147.38616 | 23939 ft | 400 kts | 5° |
| 2026-05-05 06:39 | -42.29681 | 147.38865 | 24348 ft | 393 kts | 348° |
| 2026-05-05 06:39 | -42.26958 | 147.38403 | 24780 ft | 395 kts | 345° |
| 2026-05-05 06:39 | -42.24225 | 147.37849 | 25213 ft | 399 kts | 345° |
| 2026-05-05 06:39 | -42.21508 | 147.37250 | 25638 ft | 402 kts | 344° |
| 2026-05-05 06:40 | -42.18741 | 147.36615 | 26131 ft | 405 kts | 344° |
| 2026-05-05 06:40 | -42.15951 | 147.35958 | 26571 ft | 409 kts | 343° |
| 2026-05-05 06:40 | -42.13141 | 147.35289 | 27016 ft | 412 kts | 343° |
| 2026-05-05 06:40 | -42.10309 | 147.34611 | 27465 ft | 415 kts | 343° |
| 2026-05-05 06:41 | -42.07459 | 147.33929 | 27907 ft | 418 kts | 343° |
| 2026-05-05 06:41 | -42.04581 | 147.33240 | 28341 ft | 421 kts | 344° |
| 2026-05-05 06:41 | -42.01683 | 147.32547 | 28734 ft | 425 kts | 344° |
| 2026-05-05 06:41 | -41.98757 | 147.31848 | 29133 ft | 428 kts | 344° |
| 2026-05-05 06:42 | -41.96812 | 147.31384 | 29420 ft | 430 kts | 344° |
| 2026-05-05 06:42 | -41.93859 | 147.30679 | 29873 ft | 432 kts | 344° |
| 2026-05-05 06:42 | -41.90893 | 147.29972 | 30323 ft | 432 kts | 344° |
| 2026-05-05 06:42 | -41.87931 | 147.29267 | 30817 ft | 431 kts | 344° |
| 2026-05-05 06:43 | -41.85015 | 147.28573 | 31307 ft | 429 kts | 344° |
| 2026-05-05 06:43 | -41.82082 | 147.27876 | 31790 ft | 427 kts | 344° |
| 2026-05-05 06:43 | -41.79147 | 147.27179 | 32036 ft | 431 kts | 344° |
| 2026-05-05 06:44 | -41.73104 | 147.25746 | 32016 ft | 450 kts | 344° |
| 2026-05-05 06:44 | -41.66814 | 147.24257 | 32007 ft | 465 kts | 344° |
| 2026-05-05 06:45 | -41.60400 | 147.22743 | 32003 ft | 474 kts | 345° |
| 2026-05-05 06:45 | -41.53883 | 147.21323 | 32009 ft | 480 kts | 352° |
| 2026-05-05 06:46 | -41.47177 | 147.21208 | 32022 ft | 482 kts | 354° |
| 2026-05-05 06:46 | -41.40458 | 147.21089 | 32020 ft | 482 kts | 354° |
| 2026-05-05 06:47 | -41.33746 | 147.20975 | 32036 ft | 484 kts | 354° |
| 2026-05-05 06:47 | -41.27009 | 147.20862 | 32044 ft | 483 kts | 354° |
| 2026-05-05 06:48 | -41.20316 | 147.20749 | 32047 ft | 484 kts | 354° |
| 2026-05-05 06:48 | -41.13582 | 147.20636 | 32034 ft | 484 kts | 354° |
| 2026-05-05 06:49 | -41.06844 | 147.20523 | 32052 ft | 484 kts | 354° |
| 2026-05-05 06:49 | -41.00094 | 147.20410 | 32034 ft | 484 kts | 355° |
| 2026-05-05 06:50 | -40.93385 | 147.20298 | 32050 ft | 485 kts | 354° |
| 2026-05-05 06:50 | -40.86633 | 147.20185 | 32051 ft | 484 kts | 354° |
| 2026-05-05 06:51 | -40.79896 | 147.20074 | 32045 ft | 485 kts | 355° |
| 2026-05-05 06:51 | -40.73136 | 147.19961 | 32058 ft | 485 kts | 355° |
| 2026-05-05 06:52 | -40.66374 | 147.20183 | 32047 ft | 491 kts | 7° |
| 2026-05-05 06:52 | -40.63098 | 147.21548 | 32076 ft | 497 kts | 20° |
| 2026-05-05 06:52 | -40.59915 | 147.23348 | 32060 ft | 498 kts | 20° |
| 2026-05-05 06:53 | -40.53612 | 147.26970 | 32076 ft | 498 kts | 21° |
| 2026-05-05 06:53 | -40.47258 | 147.30678 | 32078 ft | 498 kts | 21° |
| 2026-05-05 06:54 | -40.40903 | 147.34385 | 32074 ft | 498 kts | 21° |
| 2026-05-05 06:54 | -40.34612 | 147.38048 | 32083 ft | 498 kts | 21° |
| 2026-05-05 06:55 | -40.28262 | 147.41738 | 32081 ft | 498 kts | 21° |
| 2026-05-05 06:55 | -40.21905 | 147.45423 | 32088 ft | 499 kts | 21° |
| 2026-05-05 06:56 | -40.15593 | 147.49075 | 32094 ft | 498 kts | 21° |
| 2026-05-05 06:56 | -40.09251 | 147.52737 | 32096 ft | 499 kts | 21° |
| 2026-05-05 06:56 | -40.06082 | 147.54564 | 32260 ft | 498 kts | 21° |
| 2026-05-05 06:57 | -40.02913 | 147.56389 | 32578 ft | 498 kts | 21° |
| 2026-05-05 06:57 | -39.99738 | 147.58216 | 32972 ft | 498 kts | 21° |
| 2026-05-05 06:57 | -39.96566 | 147.60039 | 33123 ft | 498 kts | 21° |
| 2026-05-05 06:58 | -39.90251 | 147.63663 | 33100 ft | 495 kts | 21° |
| 2026-05-05 06:58 | -39.83966 | 147.67263 | 33111 ft | 496 kts | 21° |
| 2026-05-05 06:59 | -39.77643 | 147.70877 | 33098 ft | 497 kts | 21° |
| 2026-05-05 06:59 | -39.71305 | 147.74493 | 33112 ft | 497 kts | 21° |
| 2026-05-05 07:00 | -39.64974 | 147.78097 | 33106 ft | 497 kts | 21° |
| 2026-05-05 07:00 | -39.58674 | 147.81676 | 33105 ft | 497 kts | 21° |
| 2026-05-05 07:01 | -39.52347 | 147.85264 | 33116 ft | 496 kts | 21° |
| 2026-05-05 07:01 | -39.46023 | 147.88843 | 33110 ft | 495 kts | 21° |
| 2026-05-05 07:02 | -39.39705 | 147.92411 | 33116 ft | 495 kts | 21° |
| 2026-05-05 07:02 | -39.33380 | 147.95976 | 33121 ft | 495 kts | 21° |
| 2026-05-05 07:03 | -39.27067 | 147.99527 | 33132 ft | 495 kts | 21° |
| 2026-05-05 07:03 | -39.20796 | 148.03048 | 33134 ft | 495 kts | 21° |
| 2026-05-05 07:04 | -39.14477 | 148.06589 | 33126 ft | 494 kts | 21° |
| 2026-05-05 07:04 | -39.08175 | 148.10113 | 33133 ft | 493 kts | 21° |
| 2026-05-05 07:05 | -39.01874 | 148.13630 | 33137 ft | 493 kts | 21° |
| 2026-05-05 07:05 | -38.95567 | 148.17143 | 33136 ft | 493 kts | 21° |
| 2026-05-05 07:06 | -38.89308 | 148.20623 | 33144 ft | 493 kts | 21° |
| 2026-05-05 07:06 | -38.83003 | 148.24122 | 33135 ft | 493 kts | 21° |
| 2026-05-05 07:07 | -38.76700 | 148.27612 | 33138 ft | 493 kts | 21° |
| 2026-05-05 07:07 | -38.70448 | 148.31069 | 33140 ft | 493 kts | 21° |
| 2026-05-05 07:08 | -38.64154 | 148.34542 | 33138 ft | 492 kts | 21° |
| 2026-05-05 07:08 | -38.57868 | 148.38005 | 33141 ft | 491 kts | 21° |
| 2026-05-05 07:09 | -38.51579 | 148.41430 | 33146 ft | 490 kts | 18° |
| 2026-05-05 07:09 | -38.48283 | 148.42392 | 33126 ft | 483 kts | 2° |
| 2026-05-05 07:09 | -38.44934 | 148.42661 | 33141 ft | 482 kts | 1° |
| 2026-05-05 07:10 | -38.38243 | 148.43179 | 33154 ft | 482 kts | 0° |
| 2026-05-05 07:10 | -38.31586 | 148.43630 | 33154 ft | 482 kts | 0° |
| 2026-05-05 07:11 | -38.24893 | 148.44068 | 33205 ft | 481 kts | 360° |
| 2026-05-05 07:11 | -38.21540 | 148.44287 | 33481 ft | 481 kts | 360° |
| 2026-05-05 07:11 | -38.18196 | 148.44504 | 33951 ft | 480 kts | 360° |
| 2026-05-05 07:11 | -38.14905 | 148.44717 | 34172 ft | 479 kts | 0° |
| 2026-05-05 07:12 | -38.11582 | 148.44933 | 34154 ft | 477 kts | 360° |
| 2026-05-05 07:12 | -38.04958 | 148.45362 | 34157 ft | 476 kts | 360° |
| 2026-05-05 07:13 | -37.98357 | 148.45788 | 34160 ft | 475 kts | 360° |
| 2026-05-05 07:13 | -37.91746 | 148.46215 | 34160 ft | 475 kts | 360° |
| 2026-05-05 07:14 | -37.85182 | 148.46638 | 34161 ft | 474 kts | 360° |
| 2026-05-05 07:14 | -37.78588 | 148.47061 | 34158 ft | 474 kts | 360° |
| 2026-05-05 07:15 | -37.71995 | 148.47484 | 34157 ft | 474 kts | 360° |
| 2026-05-05 07:15 | -37.65408 | 148.47906 | 34167 ft | 473 kts | 359° |
| 2026-05-05 07:16 | -37.58829 | 148.48327 | 34168 ft | 473 kts | 359° |
| 2026-05-05 07:16 | -37.52255 | 148.48746 | 34163 ft | 473 kts | 359° |
| 2026-05-05 07:17 | -37.45726 | 148.49162 | 34160 ft | 472 kts | 359° |
| 2026-05-05 07:17 | -37.39171 | 148.49579 | 34166 ft | 471 kts | 359° |
| 2026-05-05 07:18 | -37.32626 | 148.49995 | 34166 ft | 471 kts | 359° |
| 2026-05-05 07:18 | -37.26063 | 148.50411 | 34167 ft | 471 kts | 359° |
| 2026-05-05 07:19 | -37.19528 | 148.50824 | 34158 ft | 470 kts | 359° |
| 2026-05-05 07:19 | -37.12997 | 148.51237 | 34158 ft | 470 kts | 359° |
| 2026-05-05 07:20 | -37.06505 | 148.51646 | 34163 ft | 468 kts | 359° |
| 2026-05-05 07:20 | -37.00036 | 148.52053 | 34151 ft | 464 kts | 359° |
| 2026-05-05 07:21 | -36.93571 | 148.52459 | 34147 ft | 465 kts | 359° |
| 2026-05-05 07:21 | -36.87108 | 148.52864 | 34147 ft | 464 kts | 359° |
| 2026-05-05 07:22 | -36.80671 | 148.53268 | 34159 ft | 462 kts | 359° |
| 2026-05-05 07:22 | -36.74290 | 148.53667 | 33995 ft | 459 kts | 359° |
| 2026-05-05 07:22 | -36.71114 | 148.53866 | 33323 ft | 456 kts | 359° |
| 2026-05-05 07:23 | -36.67960 | 148.54063 | 32738 ft | 452 kts | 359° |
| 2026-05-05 07:23 | -36.64837 | 148.54257 | 32211 ft | 446 kts | 358° |
| 2026-05-05 07:23 | -36.61750 | 148.54450 | 31693 ft | 442 kts | 359° |
| 2026-05-05 07:23 | -36.58683 | 148.54641 | 31141 ft | 440 kts | 359° |
| 2026-05-05 07:24 | -36.55633 | 148.54831 | 30586 ft | 438 kts | 359° |
| 2026-05-05 07:24 | -36.52595 | 148.55019 | 29998 ft | 436 kts | 359° |
| 2026-05-05 07:24 | -36.49575 | 148.55206 | 29368 ft | 434 kts | 359° |
| 2026-05-05 07:24 | -36.46614 | 148.55391 | 28842 ft | 430 kts | 359° |
| 2026-05-05 07:25 | -36.43638 | 148.55574 | 28325 ft | 425 kts | 359° |
| 2026-05-05 07:25 | -36.40692 | 148.55757 | 27813 ft | 421 kts | 359° |
| 2026-05-05 07:25 | -36.37768 | 148.55938 | 27293 ft | 418 kts | 359° |
| 2026-05-05 07:25 | -36.34859 | 148.56118 | 26779 ft | 416 kts | 359° |
| 2026-05-05 07:26 | -36.32015 | 148.56293 | 26275 ft | 413 kts | 359° |
| 2026-05-05 07:26 | -36.29150 | 148.56470 | 25775 ft | 411 kts | 359° |
| 2026-05-05 07:26 | -36.26303 | 148.56646 | 25279 ft | 409 kts | 359° |
| 2026-05-05 07:26 | -36.23423 | 148.56824 | 24774 ft | 408 kts | 359° |
| 2026-05-05 07:27 | -36.20629 | 148.56996 | 24292 ft | 407 kts | 360° |
| 2026-05-05 07:27 | -36.17806 | 148.57170 | 23801 ft | 406 kts | 360° |
| 2026-05-05 07:27 | -36.14988 | 148.57343 | 23228 ft | 405 kts | 360° |
| 2026-05-05 07:27 | -36.12182 | 148.57516 | 22722 ft | 402 kts | 360° |
| 2026-05-05 07:28 | -36.09394 | 148.57687 | 22235 ft | 399 kts | 360° |
| 2026-05-05 07:28 | -36.06630 | 148.57857 | 21773 ft | 396 kts | 360° |
| 2026-05-05 07:28 | -36.03887 | 148.58025 | 21308 ft | 393 kts | 359° |
| 2026-05-05 07:28 | -36.01169 | 148.58192 | 20853 ft | 390 kts | 359° |
| 2026-05-05 07:29 | -35.98468 | 148.58357 | 20406 ft | 388 kts | 359° |
| 2026-05-05 07:29 | -35.95771 | 148.58523 | 19972 ft | 385 kts | 359° |
| 2026-05-05 07:29 | -35.93102 | 148.58686 | 19539 ft | 383 kts | 360° |
| 2026-05-05 07:29 | -35.90444 | 148.58849 | 19115 ft | 381 kts | 360° |
| 2026-05-05 07:30 | -35.87837 | 148.59008 | 18690 ft | 379 kts | 360° |
| 2026-05-05 07:30 | -35.82590 | 148.59328 | 17785 ft | 374 kts | 360° |
| 2026-05-05 07:30 | -35.80004 | 148.59486 | 17376 ft | 371 kts | 360° |
| 2026-05-05 07:31 | -35.77447 | 148.59856 | 16834 ft | 374 kts | 13° |
| 2026-05-05 07:31 | -35.75091 | 148.61201 | 16457 ft | 375 kts | 33° |
| 2026-05-05 07:31 | -35.73211 | 148.63406 | 16029 ft | 374 kts | 53° |
| 2026-05-05 07:31 | -35.71959 | 148.66202 | 15554 ft | 374 kts | 68° |
| 2026-05-05 07:32 | -35.71011 | 148.69180 | 15065 ft | 374 kts | 69° |
| 2026-05-05 07:32 | -35.70088 | 148.72166 | 14572 ft | 374 kts | 70° |
| 2026-05-05 07:32 | -35.69176 | 148.75166 | 14080 ft | 374 kts | 70° |
| 2026-05-05 07:32 | -35.68284 | 148.78132 | 13548 ft | 375 kts | 70° |
| 2026-05-05 07:33 | -35.67395 | 148.81107 | 13025 ft | 364 kts | 71° |
| 2026-05-05 07:33 | -35.66535 | 148.83989 | 12512 ft | 352 kts | 71° |
| 2026-05-05 07:33 | -35.65706 | 148.86766 | 12097 ft | 340 kts | 71° |
| 2026-05-05 07:33 | -35.64901 | 148.89459 | 11656 ft | 330 kts | 71° |
| 2026-05-05 07:34 | -35.64121 | 148.92070 | 11238 ft | 321 kts | 71° |
| 2026-05-05 07:34 | -35.63615 | 148.93763 | 10916 ft | 317 kts | 71° |
| 2026-05-05 07:34 | -35.62861 | 148.96280 | 10476 ft | 309 kts | 71° |
| 2026-05-05 07:34 | -35.61888 | 148.99531 | 9914 ft | 303 kts | 71° |
| 2026-05-05 07:35 | -35.61170 | 149.01922 | 9515 ft | 293 kts | 71° |
| 2026-05-05 07:35 | -35.60699 | 149.03491 | 9265 ft | 287 kts | 71° |
| 2026-05-05 07:35 | -35.60020 | 149.05749 | 8937 ft | 277 kts | 71° |
| 2026-05-05 07:35 | -35.59106 | 149.08622 | 8417 ft | 269 kts | 70° |
| 2026-05-05 07:36 | -35.58426 | 149.10745 | 7979 ft | 265 kts | 70° |
| 2026-05-05 07:36 | -35.57982 | 149.12135 | 7698 ft | 263 kts | 70° |
| 2026-05-05 07:36 | -35.57318 | 149.14212 | 7280 ft | 259 kts | 71° |
| 2026-05-05 07:36 | -35.56658 | 149.16252 | 6871 ft | 256 kts | 68° |
| 2026-05-05 07:37 | -35.55583 | 149.17969 | 6425 ft | 256 kts | 36° |
| 2026-05-05 07:37 | -35.53994 | 149.18923 | 6037 ft | 252 kts | 23° |
| 2026-05-05 07:37 | -35.52352 | 149.19483 | 5686 ft | 245 kts | 3° |
| 2026-05-05 07:37 | -35.50693 | 149.19466 | 5623 ft | 237 kts | 359° |
| 2026-05-05 07:38 | -35.49045 | 149.19452 | 5313 ft | 231 kts | 0° |
| 2026-05-05 07:38 | -35.47468 | 149.19451 | 5062 ft | 221 kts | 359° |
| 2026-05-05 07:38 | -35.45948 | 149.19449 | 4781 ft | 216 kts | 360° |
| 2026-05-05 07:38 | -35.44477 | 149.19449 | 4482 ft | 212 kts | 359° |
| 2026-05-05 07:39 | -35.43019 | 149.19448 | 4191 ft | 207 kts | 359° |
| 2026-05-05 07:39 | -35.41616 | 149.19448 | 3938 ft | 192 kts | 359° |
| 2026-05-05 07:39 | -35.40299 | 149.19448 | 3654 ft | 184 kts | 359° |
| 2026-05-05 07:39 | -35.39090 | 149.19448 | 3415 ft | 162 kts | 360° |
| 2026-05-05 07:40 | -35.38036 | 149.19446 | 3185 ft | 144 kts | 360° |
| 2026-05-05 07:40 | -35.37036 | 149.19454 | 3025 ft | 143 kts | 357° |
| 2026-05-05 07:40 | -35.36051 | 149.19448 | 2799 ft | 140 kts | 357° |
| 2026-05-05 07:40 | -35.35082 | 149.19442 | 2629 ft | 137 kts | 0° |
| 2026-05-05 07:41 | -35.34145 | 149.19437 | 2444 ft | 133 kts | 360° |
| 2026-05-05 07:41 | -35.33183 | 149.19441 | 2244 ft | 138 kts | 359° |
| 2026-05-05 07:41 | -35.32240 | 149.19444 | 2037 ft | 135 kts | 359° |
| 2026-05-05 07:41 | -35.31331 | 149.19443 | 1892 ft | 123 kts | 359° |
| 2026-05-05 07:42 | -35.30646 | 149.19445 | 1882 ft | 63 kts | 0° |
| 2026-05-05 07:42 | -35.30326 | 149.19444 | 1882 ft | 34 kts | 360° |
| 2026-05-05 07:42 | -35.30188 | 149.19410 | 1881 ft | 16 kts | 303° |
| 2026-05-05 07:42 | -35.30155 | 149.19309 | 1882 ft | 10 kts | 287° |
| 2026-05-05 07:43 | -35.30192 | 149.19248 | 1880 ft | 10 kts | 191° |
| 2026-05-05 07:43 | -35.30268 | 149.19241 | 1882 ft | 13 kts | 179° |
| 2026-05-05 07:43 | -35.30393 | 149.19243 | 1882 ft | 24 kts | 179° |
| 2026-05-05 07:43 | -35.30444 | 149.19242 | 1880 ft | 0 kts | 185° |
| 2026-05-05 07:45 | -35.30466 | 149.19240 | 1882 ft | 9 kts | 183° |
| 2026-05-05 07:45 | -35.30545 | 149.19237 | 1882 ft | 11 kts | 178° |
| 2026-05-05 07:46 | -35.30626 | 149.19230 | 1881 ft | 10 kts | 216° |
| 2026-05-05 07:46 | -35.30639 | 149.19170 | 1878 ft | 4 kts | 296° |
| 2026-05-05 07:46 | -35.30620 | 149.19137 | 1880 ft | 6 kts | 308° |
| 2026-05-05 07:46 | -35.30616 | 149.19098 | 1882 ft | 4 kts | 238° |
| 2026-05-05 07:47 | -35.30642 | 149.19069 | 1881 ft | 5 kts | 220° |
| 2026-05-05 07:47 | -35.30650 | 149.19061 | 1878 ft | 0 kts | 220° |
| 2026-05-05 07:47 | -35.30649 | 149.19061 | 1878 ft | 0 kts | 220° |